Time;durP1;ratioP1;P1;durP2;ratioP2;P2;SDS_P1;SDS_P2;PMS_P1;PMS_P2;Temp;Humidity;BMP_temperature;BMP_pressure;BME280_temperature;BME280_humidity;BME280_pressure;Samples;Min_cycle;Max_cycle;Signal;HPM_P1;HPM_P2
2022/10/22 00:00:16;;;;;;;49.63;27.67;;;;;;;10.80;100.00;100769.94;2072336;28;32182;-73
2022/10/22 00:01:19;;;;;;;62.63;30.67;;;;;;;10.78;100.00;100761.94;2071955;28;38934;-73
2022/10/22 00:02:22;;;;;;;70.63;31.85;;;;;;;10.78;100.00;100758.41;2072590;28;20879;-73
2022/10/22 00:03:24;;;;;;;57.67;30.30;;;;;;;10.86;100.00;100767.13;2078971;28;39343;-74
2022/10/22 00:04:26;;;;;;;68.00;33.90;;;;;;;10.86;100.00;100761.78;2079301;28;33379;-73
2022/10/22 00:05:31;;;;;;;69.15;32.35;;;;;;;10.84;100.00;100758.25;2072147;28;32759;-74
2022/10/22 00:06:33;;;;;;;63.42;31.55;;;;;;;10.82;100.00;100757.41;2072267;28;33490;-73
2022/10/22 00:07:36;;;;;;;57.03;29.02;;;;;;;10.80;100.00;100760.13;2072144;28;20043;-74
2022/10/22 00:08:40;;;;;;;66.95;32.65;;;;;;;10.82;100.00;100760.06;2072612;28;20168;-73
2022/10/22 00:09:44;;;;;;;68.43;30.73;;;;;;;10.82;100.00;100763.66;2070884;28;37311;-73
2022/10/22 00:10:46;;;;;;;66.25;32.90;;;;;;;10.80;100.00;100761.91;2072099;28;20050;-74
2022/10/22 00:11:48;;;;;;;60.92;31.52;;;;;;;10.78;100.00;100763.75;2071222;28;39125;-74
2022/10/22 00:12:49;;;;;;;57.10;30.88;;;;;;;10.74;100.00;100762.97;2072955;28;20819;-74
2022/10/22 00:13:51;;;;;;;60.55;30.20;;;;;;;10.69;100.00;100760.44;2071771;28;30669;-74
2022/10/22 00:14:56;;;;;;;58.42;30.08;;;;;;;10.67;100.00;100764.91;2072084;28;37167;-72
2022/10/22 00:15:57;;;;;;;55.67;29.67;;;;;;;10.65;100.00;100761.41;2071890;28;37272;-74
2022/10/22 00:17:00;;;;;;;46.97;23.88;;;;;;;10.63;100.00;100770.41;2072657;28;20050;-74
2022/10/22 00:18:02;;;;;;;54.58;29.30;;;;;;;10.59;100.00;100768.75;2071380;28;20057;-74
2022/10/22 00:19:08;;;;;;;51.85;27.15;;;;;;;10.57;100.00;100766.09;2071696;28;20851;-73
2022/10/22 00:20:10;;;;;;;56.22;28.08;;;;;;;10.57;100.00;100774.13;2071799;28;31887;-74
2022/10/22 00:21:12;;;;;;;50.03;26.50;;;;;;;10.57;100.00;100768.78;2071786;28;37881;-74
2022/10/22 00:22:13;;;;;;;48.97;25.50;;;;;;;10.53;100.00;100766.19;2071336;28;32833;-74
2022/10/22 00:23:15;;;;;;;65.45;32.05;;;;;;;10.50;100.00;100764.50;2070921;28;32695;-73
2022/10/22 00:24:17;;;;;;;56.85;29.67;;;;;;;10.47;100.00;100765.44;2072210;28;21286;-73
2022/10/22 00:25:19;;;;;;;57.83;27.27;;;;;;;10.46;100.00;100773.50;2071925;28;37782;-73
2022/10/22 00:26:21;;;;;;;43.33;24.85;;;;;;;10.44;100.00;100770.00;2071242;28;38588;-75
2022/10/22 00:27:23;;;;;;;38.50;22.00;;;;;;;10.42;100.00;100766.47;2072743;28;32520;-73
2022/10/22 00:28:25;;;;;;;47.50;24.90;;;;;;;10.39;100.00;100771.91;2071287;28;20149;-72
2022/10/22 00:29:28;;;;;;;51.78;27.25;;;;;;;10.34;100.00;100773.81;2071353;28;20045;-73
2022/10/22 00:30:30;;;;;;;50.13;25.10;;;;;;;10.35;100.00;100770.22;2071679;28;34163;-73
2022/10/22 00:31:32;;;;;;;56.58;28.88;;;;;;;10.34;100.00;100774.69;2072266;28;39043;-72
2022/10/22 00:32:34;;;;;;;45.20;24.58;;;;;;;10.34;100.00;100774.69;2071698;28;20961;-72
2022/10/22 00:33:38;;;;;;;51.45;28.63;;;;;;;10.32;100.00;100769.38;2071956;28;20046;-73
2022/10/22 00:34:39;;;;;;;52.00;26.27;;;;;;;10.30;100.00;100767.63;2072250;28;20877;-73
2022/10/22 00:35:43;;;;;;;49.13;26.83;;;;;;;10.29;100.00;100771.22;2070852;28;37270;-73
2022/10/22 00:36:45;;;;;;;49.35;28.17;;;;;;;10.27;100.00;100765.91;2070562;28;40397;-73
2022/10/22 00:37:49;;;;;;;58.53;25.92;;;;;;;10.26;100.00;100771.28;2071140;28;31010;-73
2022/10/22 00:38:50;;;;;;;59.55;30.02;;;;;;;10.24;100.00;100770.44;2071502;28;32846;-73
2022/10/22 00:39:52;;;;;;;54.15;27.27;;;;;;;10.24;100.00;100778.47;2072245;28;34279;-73
2022/10/22 00:40:57;;;;;;;50.47;27.42;;;;;;;10.21;100.00;100773.19;2071935;28;20042;-72
2022/10/22 00:41:59;;;;;;;42.67;22.92;;;;;;;10.18;100.00;100776.84;2079347;28;35876;-73
2022/10/22 00:43:01;;;;;;;44.53;23.88;;;;;;;10.13;100.00;100776.06;2071340;28;20828;-73
2022/10/22 00:44:05;;;;;;;39.58;22.55;;;;;;;10.09;100.00;100779.72;2071169;28;37225;-73
2022/10/22 00:45:09;;;;;;;39.78;21.35;;;;;;;10.04;100.00;100779.81;2078899;28;36026;-72
2022/10/22 00:46:12;;;;;;;56.75;27.60;;;;;;;10.07;100.00;100787.78;2078688;28;31703;-72
2022/10/22 00:47:17;;;;;;;42.05;23.70;;;;;;;10.07;100.00;100781.56;2071391;28;20067;-72
2022/10/22 00:48:25;;;;;;;58.35;28.63;;;;;;;10.07;100.00;100782.44;2072282;28;20039;-72
2022/10/22 00:49:27;;;;;;;60.05;28.90;;;;;;;10.07;100.00;100782.44;2079709;28;31549;-73
2022/10/22 00:50:38;;;;;;;59.92;28.15;;;;;;;10.11;100.00;100777.91;2078481;28;40143;-73
2022/10/22 00:51:40;;;;;;;56.42;27.92;;;;;;;10.12;100.00;100782.31;2071830;28;20034;-73
2022/10/22 00:52:42;;;;;;;48.83;26.17;;;;;;;10.11;100.00;100785.94;2071669;28;28288;-73
2022/10/22 00:53:50;;;;;;;70.88;30.55;;;;;;;10.10;100.00;100784.16;2071795;28;36204;-73
2022/10/22 00:54:52;;;;;;;64.05;27.88;;;;;;;10.10;100.00;100790.41;2079223;28;29840;-73
2022/10/22 00:55:54;;;;;;;62.00;30.38;;;;;;;10.11;100.00;100789.47;2078213;28;34043;-73
2022/10/22 00:56:56;;;;;;;70.53;30.13;;;;;;;10.12;100.00;100788.56;2078978;28;35157;-73
2022/10/22 00:58:03;;;;;;;69.47;31.45;;;;;;;10.17;100.00;100793.78;2079122;28;33934;-73
2022/10/22 00:59:05;;;;;;;64.70;31.13;;;;;;;10.21;100.00;100789.25;2071550;28;36761;-73
2022/10/22 01:00:08;;;;;;;58.45;31.05;;;;;;;10.22;100.00;100786.53;2078936;28;29155;-74
2022/10/22 01:01:23;;;;;;;79.18;34.00;;;;;;;10.23;100.00;100782.06;2078928;28;31099;-72
2022/10/22 01:02:27;;;;;;;79.05;34.90;;;;;;;10.26;100.00;100785.53;2072109;28;20039;-73
2022/10/22 01:03:28;;;;;;;76.97;35.83;;;;;;;10.30;100.00;100783.66;2071100;28;31066;-73
2022/10/22 01:04:30;;;;;;;91.97;37.15;;;;;;;10.38;100.00;100786.22;2071187;28;33319;-73
2022/10/22 01:05:41;;;;;;;75.45;35.17;;;;;;;10.37;100.00;100785.31;2071922;28;20027;-73
2022/10/22 01:06:43;;;;;;;64.78;31.65;;;;;;;10.36;100.00;100791.59;2079591;28;35541;-73
2022/10/22 01:07:51;;;;;;;73.75;34.35;;;;;;;10.33;100.00;100786.31;2077601;28;35653;-73
2022/10/22 01:09:31;;;;;;;62.95;32.40;;;;;;;10.30;100.00;100789.91;2079480;28;37293;-73
2022/10/22 01:10:59;;;;;;;65.63;29.88;;;;;;;10.22;100.00;100791.03;2074069;28;32372;-73
2022/10/22 01:12:30;;;;;;;47.38;26.02;;;;;;;10.15;100.00;100800.09;2078996;28;31246;-73
2022/10/22 01:13:56;;;;;;;46.38;23.73;;;;;;;10.07;100.00;100797.63;2078777;28;40585;-73
2022/10/22 01:15:01;;;;;;;47.13;24.77;;;;;;;10.04;100.00;100787.84;2074401;28;37085;-73
2022/10/22 01:16:25;;;;;;;61.05;29.25;;;;;;;10.05;100.00;100788.72;2071187;28;40653;-73
2022/10/22 01:17:39;;;;;;;52.65;28.90;;;;;;;10.04;100.00;100792.34;2080024;28;20907;-74
2022/10/22 01:18:59;;;;;;;54.97;28.17;;;;;;;10.00;100.00;100787.97;2075884;28;33120;-74
2022/10/22 01:20:51;;;;;;;55.28;27.98;;;;;;;10.02;100.00;100794.16;2071480;28;32534;-73
2022/10/22 01:22:18;;;;;;;57.88;29.30;;;;;;;10.04;100.00;100792.34;2053662;28;36852;-73
2022/10/22 01:23:55;;;;;;;67.15;30.58;;;;;;;10.03;100.00;100793.22;2079229;28;30439;-73
2022/10/22 01:25:46;;;;;;;58.15;28.92;;;;;;;10.03;100.00;100793.22;2072216;28;37771;-73
2022/10/22 01:27:30;;;;;;;59.75;29.08;;;;;;;10.00;100.00;100793.31;2070313;28;33391;-72
2022/10/22 01:28:47;;;;;;;49.35;26.42;;;;;;;9.96;100.00;100800.53;2070888;28;33392;-74
2022/10/22 01:30:02;;;;;;;53.42;24.63;;;;;;;9.94;100.00;100794.31;2071795;28;38935;-73
2022/10/22 01:31:06;;;;;;;49.80;25.20;;;;;;;9.90;100.00;100796.19;2079173;28;35205;-73
2022/10/22 01:32:18;;;;;;;45.88;24.23;;;;;;;9.85;100.00;100797.19;2077779;28;20041;-73
2022/10/22 01:33:24;;;;;;;39.92;21.55;;;;;;;9.81;100.00;100785.69;2079084;28;30334;-74
2022/10/22 01:34:31;;;;;;;40.63;20.83;;;;;;;9.78;100.00;100790.22;2079594;28;20034;-72
2022/10/22 01:35:40;;;;;;;45.20;24.77;;;;;;;9.75;100.00;100797.41;2079047;28;37264;-73
2022/10/22 01:36:44;;;;;;;56.85;26.33;;;;;;;9.75;100.00;100786.72;2078969;28;28814;-72
2022/10/22 01:38:01;;;;;;;57.97;29.75;;;;;;;9.74;100.00;100789.41;2079187;28;20034;-73
2022/10/22 01:39:04;;;;;;;58.28;26.65;;;;;;;9.72;100.00;100791.25;2078918;28;39768;-73
2022/10/22 01:40:08;;;;;;;68.55;29.63;;;;;;;9.71;100.00;100784.16;2078947;28;31089;-73
2022/10/22 01:41:12;;;;;;;49.78;26.10;;;;;;;9.67;100.00;100788.69;2075945;28;31575;-73
2022/10/22 01:42:14;;;;;;;45.80;25.58;;;;;;;9.65;100.00;100789.63;2071961;28;35072;-72
2022/10/22 01:43:15;;;;;;;63.80;28.65;;;;;;;9.66;100.00;100786.06;2071083;28;36178;-73
2022/10/22 01:44:38;;;;;;;57.17;26.77;;;;;;;9.63;100.00;100792.31;2071760;28;33892;-73
2022/10/22 01:45:55;;;;;;;51.53;27.70;;;;;;;9.68;100.00;100794.91;2071407;28;31113;-72
2022/10/22 01:47:08;;;;;;;66.93;31.08;;;;;;;9.73;100.00;100782.34;2071083;28;37362;-72
2022/10/22 01:48:27;;;;;;;60.60;28.83;;;;;;;9.80;100.00;100788.41;2077776;28;32692;-72
2022/10/22 01:49:54;;;;;;;75.63;34.45;;;;;;;9.82;100.00;100789.28;2075351;28;36603;-72
2022/10/22 01:51:42;;;;;;;75.00;34.85;;;;;;;9.88;100.00;100792.66;2072131;28;30230;-72
2022/10/22 01:53:05;;;;;;;64.32;30.35;;;;;;;9.83;100.00;100789.22;2070774;28;33146;-73
2022/10/22 01:54:25;;;;;;;55.08;26.73;;;;;;;9.79;100.00;100789.34;2078691;28;29860;-72
2022/10/22 01:56:06;;;;;;;57.28;27.83;;;;;;;9.74;100.00;100794.78;2074097;28;39091;-73
2022/10/22 01:57:29;;;;;;;52.20;27.33;;;;;;;9.68;100.00;100792.25;2070702;28;34659;-72
2022/10/22 01:59:02;;;;;;;61.47;29.08;;;;;;;9.69;100.00;100796.66;2078820;28;36209;-73
2022/10/22 02:00:13;;;;;;;60.60;31.17;;;;;;;9.65;100.00;100789.63;2071710;28;37954;-74
2022/10/22 02:01:36;;;;;;;64.82;31.27;;;;;;;9.63;100.00;100786.97;2070719;28;35227;-72
2022/10/22 02:03:05;;;;;;;58.25;27.63;;;;;;;9.61;100.00;100793.28;2070945;28;34547;-73
2022/10/22 02:04:24;;;;;;;51.10;25.83;;;;;;;9.59;100.00;100790.63;2070722;28;28415;-73
2022/10/22 02:05:43;;;;;;;69.68;33.95;;;;;;;9.60;100.00;100794.19;2070442;28;35455;-73
2022/10/22 02:06:46;;;;;;;62.10;30.77;;;;;;;9.59;100.00;100795.13;2071441;28;32283;-73
2022/10/22 02:07:57;;;;;;;68.70;31.45;;;;;;;9.58;100.00;100796.00;2070217;28;33343;-73
2022/10/22 02:09:02;;;;;;;58.05;27.23;;;;;;;9.57;100.00;100791.59;2070475;28;32237;-73
2022/10/22 02:10:07;;;;;;;56.03;27.45;;;;;;;9.53;100.00;100790.78;2078681;28;31944;-72
2022/10/22 02:11:12;;;;;;;54.25;26.00;;;;;;;9.51;100.00;100793.50;2072229;28;36646;-73
2022/10/22 02:12:18;;;;;;;54.33;27.30;;;;;;;9.49;100.00;100791.75;2078313;28;20954;-73
2022/10/22 02:13:29;;;;;;;56.58;29.05;;;;;;;9.46;100.00;100790.03;2070581;28;39877;-73
2022/10/22 02:14:36;;;;;;;55.67;28.38;;;;;;;9.42;100.00;100788.34;2070726;28;35985;-73
2022/10/22 02:15:40;;;;;;;59.72;28.95;;;;;;;9.42;100.00;100787.44;2074177;28;30858;-73
2022/10/22 02:16:46;;;;;;;56.65;27.20;;;;;;;9.43;100.00;100798.09;2070097;28;30083;-73
2022/10/22 02:17:50;;;;;;;67.00;29.85;;;;;;;9.42;100.00;100788.34;2070734;28;31219;-72
2022/10/22 02:18:57;;;;;;;65.82;29.67;;;;;;;9.42;100.00;100791.00;2070216;28;33216;-73
2022/10/22 02:20:06;;;;;;;58.17;29.42;;;;;;;9.41;100.00;100786.56;2072855;28;20226;-73
2022/10/22 02:21:08;;;;;;;53.90;27.33;;;;;;;9.42;100.00;100792.78;2068462;28;40810;-72
2022/10/22 02:22:10;;;;;;;58.95;28.17;;;;;;;9.40;100.00;100789.25;2070795;28;32915;-72
2022/10/22 02:23:12;;;;;;;59.67;27.63;;;;;;;9.39;100.00;100791.06;2070826;28;20035;-72
2022/10/22 02:24:14;;;;;;;59.00;28.52;;;;;;;9.38;100.00;100791.97;2074525;28;40200;-73
2022/10/22 02:25:16;;;;;;;53.90;27.30;;;;;;;9.37;100.00;100798.25;2077835;28;29251;-73
2022/10/22 02:26:34;;;;;;;48.35;25.85;;;;;;;9.37;100.00;100800.91;2078117;28;37081;-73
2022/10/22 02:27:50;;;;;;;55.70;28.40;;;;;;;9.35;100.00;100803.59;2077439;28;34904;-73
2022/10/22 02:29:01;;;;;;;50.78;25.73;;;;;;;9.35;100.00;100797.38;2077300;28;36176;-73
2022/10/22 02:30:09;;;;;;;69.45;30.35;;;;;;;9.35;100.00;100803.59;2075957;28;39182;-72
2022/10/22 02:31:21;;;;;;;61.85;28.42;;;;;;;9.39;100.00;100796.41;2071656;28;20049;-72
2022/10/22 02:32:31;;;;;;;78.50;32.95;;;;;;;9.42;100.00;100798.13;2070286;28;36916;-72
2022/10/22 02:33:37;;;;;;;78.25;33.45;;;;;;;9.46;100.00;100800.72;2072771;28;35696;-73
2022/10/22 02:34:41;;;;;;;72.30;33.58;;;;;;;9.47;100.00;100802.47;2071572;28;20124;-73
2022/10/22 02:35:45;;;;;;;74.75;31.50;;;;;;;9.53;100.00;100796.13;2070084;28;35799;-73
2022/10/22 02:36:47;;;;;;;68.72;31.10;;;;;;;9.51;100.00;100801.50;2070737;28;32207;-73
2022/10/22 02:37:53;;;;;;;80.07;35.95;;;;;;;9.51;100.00;100808.63;2070638;28;30656;-73
2022/10/22 02:38:55;;;;;;;75.75;34.58;;;;;;;9.51;100.00;100797.94;2070207;28;40874;-73
2022/10/22 02:39:57;;;;;;;78.97;33.00;;;;;;;9.52;100.00;100795.22;2070691;28;34638;-73
2022/10/22 02:41:01;;;;;;;73.30;32.72;;;;;;;9.56;100.00;100804.06;2077633;28;37896;-73
2022/10/22 02:42:07;;;;;;;74.82;35.22;;;;;;;9.63;100.00;100799.47;2061552;28;39257;-74
2022/10/22 02:43:09;;;;;;;77.57;32.72;;;;;;;9.67;100.00;100798.50;2062260;28;37639;-73
2022/10/22 02:44:12;;;;;;;83.60;36.42;;;;;;;9.74;100.00;100802.78;2063204;28;20082;-73
2022/10/22 02:45:17;;;;;;;88.43;38.80;;;;;;;9.76;100.00;100800.97;2064271;28;20689;-73
2022/10/22 02:46:19;;;;;;;78.25;35.33;;;;;;;9.73;100.00;100801.03;2063770;28;34945;-73
2022/10/22 02:47:20;;;;;;;68.95;33.05;;;;;;;9.72;100.00;100807.28;2061983;28;34520;-73
2022/10/22 02:48:22;;;;;;;65.38;32.28;;;;;;;9.69;100.00;100805.59;2062163;28;26718;-73
2022/10/22 02:49:24;;;;;;;79.22;33.00;;;;;;;9.67;100.00;100795.81;2062825;28;21316;-73
2022/10/22 02:50:28;;;;;;;74.78;35.38;;;;;;;9.68;100.00;100808.28;2062859;28;20042;-73
2022/10/22 02:51:30;;;;;;;70.82;31.98;;;;;;;9.68;100.00;100800.25;2063042;28;30051;-73
2022/10/22 02:52:32;;;;;;;74.60;32.67;;;;;;;9.68;100.00;100795.78;2063405;28;30315;-73
2022/10/22 02:53:33;;;;;;;65.00;32.47;;;;;;;9.67;100.00;100804.75;2064046;28;33022;-72
2022/10/22 02:54:35;;;;;;;72.20;32.08;;;;;;;9.68;100.00;100802.94;2063340;28;39529;-74
2022/10/22 02:55:37;;;;;;;72.32;34.15;;;;;;;9.72;100.00;100802.81;2064352;28;31788;-72
2022/10/22 02:56:38;;;;;;;91.50;38.88;;;;;;;9.77;100.00;100799.19;2064462;28;35165;-72
2022/10/22 02:57:41;;;;;;;82.97;38.80;;;;;;;9.85;100.00;100802.56;2064520;28;30414;-73
2022/10/22 02:58:43;;;;;;;90.47;41.78;;;;;;;9.90;100.00;100798.84;2063783;28;37165;-73
2022/10/22 02:59:44;;;;;;;103.68;41.78;;;;;;;9.91;100.00;100803.31;2064390;28;31478;-73
2022/10/22 03:00:47;;;;;;;86.38;39.45;;;;;;;9.92;100.00;100797.06;2063972;28;20095;-73
2022/10/22 03:01:49;;;;;;;75.18;35.20;;;;;;;9.90;100.00;100809.56;2063720;28;38686;-73
2022/10/22 03:02:51;;;;;;;78.85;36.60;;;;;;;9.87;100.00;100806.97;2063899;28;37381;-73
2022/10/22 03:03:52;;;;;;;80.97;37.95;;;;;;;9.87;100.00;100806.97;2063431;28;36784;-73
2022/10/22 03:04:54;;;;;;;80.43;35.83;;;;;;;9.83;100.00;100805.25;2063429;28;39920;-73
2022/10/22 03:05:56;;;;;;;80.78;37.83;;;;;;;9.84;100.00;100815.06;2064308;28;31873;-72
2022/10/22 03:06:57;;;;;;;74.57;36.78;;;;;;;9.83;100.00;100818.63;2063768;28;33824;-73
2022/10/22 03:07:59;;;;;;;73.13;36.13;;;;;;;9.81;100.00;100812.44;2064174;28;38392;-73
2022/10/22 03:09:01;;;;;;;86.93;41.88;;;;;;;9.96;100.00;100805.88;2063957;28;36623;-73
2022/10/22 03:10:04;;;;;;;84.80;39.92;;;;;;;9.86;100.00;100815.03;2065017;28;20034;-73
2022/10/22 03:11:06;;;;;;;71.07;33.15;;;;;;;9.82;100.00;100814.22;2065760;28;20046;-73
2022/10/22 03:12:08;;;;;;;71.32;35.13;;;;;;;9.80;100.00;100821.38;2072068;28;30910;-72
2022/10/22 03:13:12;;;;;;;76.93;35.92;;;;;;;9.81;100.00;100815.09;2072151;28;36544;-72
2022/10/22 03:14:14;;;;;;;74.95;34.33;;;;;;;9.81;100.00;100822.25;2072586;28;33119;-73
2022/10/22 03:15:15;;;;;;;83.72;37.67;;;;;;;9.85;100.00;100818.59;2079371;28;39327;-72
2022/10/22 03:16:17;;;;;;;88.97;36.80;;;;;;;9.86;100.00;100825.72;2080714;28;27597;-73
2022/10/22 03:17:21;;;;;;;75.00;34.67;;;;;;;9.88;100.00;100818.53;2072378;28;32798;-73
2022/10/22 03:18:24;;;;;;;68.82;33.28;;;;;;;9.90;100.00;100816.69;2073667;28;20039;-73
2022/10/22 03:19:28;;;;;;;78.55;32.90;;;;;;;9.91;100.00;100816.69;2072136;28;33682;-73
2022/10/22 03:20:30;;;;;;;75.22;34.55;;;;;;;9.91;100.00;100823.81;2071602;28;36830;-72
2022/10/22 03:21:43;;;;;;;72.78;34.72;;;;;;;9.89;100.00;100821.19;2072063;28;20038;-73
2022/10/22 03:22:45;;;;;;;77.38;36.88;;;;;;;9.86;100.00;100826.59;2071578;28;32727;-73
2022/10/22 03:23:47;;;;;;;67.40;32.08;;;;;;;9.82;100.00;100827.59;2071737;28;34931;-72
2022/10/22 03:24:54;;;;;;;65.20;30.30;;;;;;;9.80;100.00;100825.84;2072387;28;33341;-73
2022/10/22 03:25:56;;;;;;;68.50;32.10;;;;;;;9.80;100.00;100828.50;2080214;28;30970;-72
2022/10/22 03:26:58;;;;;;;77.25;36.65;;;;;;;9.78;100.00;100835.69;2079869;28;20042;-73
2022/10/22 03:28:05;;;;;;;73.45;36.55;;;;;;;9.85;100.00;100835.53;2079983;28;33127;-73
2022/10/22 03:29:10;;;;;;;81.07;38.28;;;;;;;9.82;100.00;100835.59;2079385;28;36539;-73
2022/10/22 03:30:12;;;;;;;65.53;32.03;;;;;;;9.79;100.00;100830.31;2079673;28;32877;-73
2022/10/22 03:31:14;;;;;;;61.40;30.85;;;;;;;9.77;100.00;100833.94;2079465;28;30509;-72
2022/10/22 03:32:16;;;;;;;63.17;32.05;;;;;;;9.74;100.00;100832.19;2072234;28;32588;-72
2022/10/22 03:33:17;;;;;;;68.07;31.50;;;;;;;9.74;100.00;100830.44;2071047;28;33263;-72
2022/10/22 03:34:22;;;;;;;70.18;33.50;;;;;;;9.75;100.00;100833.97;2071772;28;36024;-72
2022/10/22 03:35:24;;;;;;;73.88;35.38;;;;;;;9.75;100.00;100828.63;2072633;28;20042;-72
2022/10/22 03:36:25;;;;;;;77.53;35.42;;;;;;;9.79;100.00;100832.97;2071775;28;30013;-73
2022/10/22 03:37:29;;;;;;;74.00;34.92;;;;;;;9.78;100.00;100828.56;2070686;28;31998;-73
2022/10/22 03:38:30;;;;;;;76.72;37.90;;;;;;;9.82;100.00;100826.72;2071752;28;33491;-73
2022/10/22 03:39:37;;;;;;;85.10;36.85;;;;;;;9.80;100.00;100821.38;2071996;28;20860;-73
2022/10/22 03:40:42;;;;;;;81.78;35.78;;;;;;;9.84;100.00;100827.56;2080025;28;31393;-72
2022/10/22 03:41:47;;;;;;;75.05;33.80;;;;;;;9.83;100.00;100825.78;2071015;28;27145;-72
2022/10/22 03:42:52;;;;;;;80.18;37.58;;;;;;;9.88;100.00;100835.47;2071709;28;38396;-72
2022/10/22 03:43:54;;;;;;;70.88;34.88;;;;;;;9.88;100.00;100827.44;2078684;28;36465;-72
2022/10/22 03:44:56;;;;;;;71.20;33.90;;;;;;;9.89;100.00;100829.22;2072003;28;39410;-73
2022/10/22 03:45:58;;;;;;;70.93;34.97;;;;;;;9.87;100.00;100833.72;2079200;28;37192;-72
2022/10/22 03:46:59;;;;;;;74.32;36.97;;;;;;;9.87;100.00;100830.13;2079572;28;34438;-73
2022/10/22 03:48:03;;;;;;;76.68;39.55;;;;;;;9.92;100.00;100837.16;2071678;28;35078;-73
2022/10/22 03:49:05;;;;;;;87.53;40.42;;;;;;;9.90;100.00;100828.28;2072283;28;26782;-73
2022/10/22 03:50:07;;;;;;;83.28;36.72;;;;;;;9.90;100.00;100838.97;2072166;28;24908;-72
2022/10/22 03:51:09;;;;;;;65.85;31.73;;;;;;;9.86;100.00;100837.28;2071638;28;39174;-73
2022/10/22 03:52:13;;;;;;;61.50;30.60;;;;;;;9.83;100.00;100841.81;2072777;28;20050;-73
2022/10/22 03:53:15;;;;;;;78.25;33.33;;;;;;;9.81;100.00;100832.97;2079625;28;28487;-72
2022/10/22 03:54:17;;;;;;;78.22;34.55;;;;;;;9.89;100.00;100834.56;2079452;28;20042;-73
2022/10/22 03:55:21;;;;;;;79.70;36.45;;;;;;;9.96;100.00;100834.41;2071650;28;36353;-72
2022/10/22 03:56:23;;;;;;;74.47;35.45;;;;;;;10.02;100.00;100834.28;2071553;28;35009;-73
2022/10/22 03:57:25;;;;;;;79.28;36.08;;;;;;;10.01;100.00;100843.22;2079686;28;35887;-73
2022/10/22 03:58:27;;;;;;;89.57;39.65;;;;;;;10.04;100.00;100832.47;2079260;28;29801;-72
2022/10/22 03:59:36;;;;;;;87.03;40.25;;;;;;;10.07;100.00;100835.06;2064149;28;20069;-73
2022/10/22 04:00:38;;;;;;;87.05;38.55;;;;;;;10.09;100.00;100835.91;2064447;28;31874;-73
2022/10/22 04:01:40;;;;;;;81.43;36.83;;;;;;;10.08;100.00;100842.16;2071602;28;35017;-73
2022/10/22 04:02:42;;;;;;;87.22;37.88;;;;;;;10.09;100.00;100835.91;2071707;28;36331;-73
2022/10/22 04:03:43;;;;;;;82.72;37.75;;;;;;;10.07;100.00;100835.06;2079629;28;29790;-72
2022/10/22 04:04:45;;;;;;;91.07;37.60;;;;;;;10.06;100.00;100833.28;2079499;28;20061;-72
2022/10/22 04:05:49;;;;;;;76.90;37.13;;;;;;;10.03;100.00;100831.59;2079477;28;37219;-73
2022/10/22 04:06:51;;;;;;;69.15;32.05;;;;;;;10.00;100.00;100822.75;2079139;28;30144;-72
2022/10/22 04:07:52;;;;;;;83.13;38.13;;;;;;;10.02;100.00;100835.16;2072056;28;28919;-73
2022/10/22 04:08:54;;;;;;;87.68;38.95;;;;;;;10.07;100.00;100829.72;2072592;28;20093;-73
2022/10/22 04:09:56;;;;;;;81.75;37.15;;;;;;;10.10;100.00;100837.66;2070818;28;33311;-73
2022/10/22 04:10:58;;;;;;;81.88;36.83;;;;;;;10.11;100.00;100828.72;2072425;28;20043;-73
2022/10/22 04:12:00;;;;;;;93.65;39.15;;;;;;;10.11;100.00;100834.06;2072003;28;36257;-73
2022/10/22 04:13:01;;;;;;;86.43;37.22;;;;;;;10.11;100.00;100828.72;2071698;28;35336;-72
2022/10/22 04:14:06;;;;;;;91.28;40.90;;;;;;;10.13;100.00;100829.56;2071910;28;32134;-73
2022/10/22 04:15:08;;;;;;;95.03;42.05;;;;;;;10.12;100.00;100830.47;2072023;28;20800;-73
2022/10/22 04:16:23;;;;;;;88.28;43.40;;;;;;;10.12;100.00;100822.44;2072890;28;20714;-72
2022/10/22 04:17:36;;;;;;;89.75;41.35;;;;;;;10.20;100.00;100824.97;2080295;28;20141;-73
2022/10/22 04:18:39;;;;;;;91.53;39.17;;;;;;;10.18;100.00;100830.34;2076869;28;30259;-74
2022/10/22 04:19:40;;;;;;;76.95;38.28;;;;;;;10.20;100.00;100823.16;2071968;28;28779;-74
2022/10/22 04:20:44;;;;;;;91.00;40.58;;;;;;;10.19;100.00;100826.72;2071784;28;37896;-73
2022/10/22 04:21:46;;;;;;;82.45;37.75;;;;;;;10.14;100.00;100826.00;2071541;28;37049;-74
2022/10/22 04:22:48;;;;;;;92.50;39.03;;;;;;;10.12;100.00;100825.13;2079738;28;20034;-73
2022/10/22 04:23:52;;;;;;;88.30;41.08;;;;;;;10.11;100.00;100826.06;2079445;28;35893;-72
2022/10/22 04:24:54;;;;;;;96.65;43.83;;;;;;;10.07;100.00;100824.38;2072015;28;31082;-74
2022/10/22 04:26:01;;;;;;;77.68;39.47;;;;;;;10.04;100.00;100821.75;2072788;28;20833;-72
2022/10/22 04:27:03;;;;;;;78.32;37.83;;;;;;;10.01;100.00;100821.81;2071402;28;39598;-72
2022/10/22 04:28:07;;;;;;;78.43;36.58;;;;;;;9.97;100.00;100814.78;2072607;28;20042;-74
2022/10/22 04:30:24;;;;;;;70.22;31.67;;;;;;;9.89;100.00;100820.31;2080256;28;20061;-75
2022/10/22 04:31:28;;;;;;;66.60;30.77;;;;;;;9.88;100.00;100824.75;2079243;28;29067;-75
2022/10/22 04:32:30;;;;;;;85.80;32.70;;;;;;;9.86;100.00;100821.25;2071589;28;40399;-75
2022/10/22 04:33:31;;;;;;;69.40;30.45;;;;;;;9.82;100.00;100821.34;2072185;28;33953;-75
2022/10/22 04:34:33;;;;;;;68.45;32.70;;;;;;;9.76;100.00;100819.66;2071750;28;40011;-75
2022/10/22 04:35:38;;;;;;;69.40;33.45;;;;;;;9.73;100.00;100825.09;2072175;28;30798;-75
2022/10/22 04:36:40;;;;;;;65.68;31.80;;;;;;;9.68;100.00;100824.31;2071945;28;28737;-75
2022/10/22 04:37:42;;;;;;;71.68;32.78;;;;;;;9.68;100.00;100830.53;2071735;28;35824;-75
2022/10/22 04:38:46;;;;;;;70.30;32.13;;;;;;;9.64;100.00;100836.00;2072078;28;33867;-75
2022/10/22 04:39:48;;;;;;;67.97;31.10;;;;;;;9.61;100.00;100836.06;2071457;28;33581;-75
2022/10/22 04:40:52;;;;;;;68.82;32.85;;;;;;;9.59;100.00;100832.53;2072084;28;32898;-75
2022/10/22 04:41:53;;;;;;;54.22;30.05;;;;;;;9.57;100.00;100837.03;2071716;28;31326;-75
2022/10/22 04:42:58;;;;;;;56.30;29.98;;;;;;;9.55;100.00;100837.94;2071616;28;34799;-75
2022/10/22 04:44:01;;;;;;;60.00;30.40;;;;;;;9.51;100.00;100836.25;2072670;28;20085;-75
2022/10/22 04:45:03;;;;;;;54.13;27.30;;;;;;;9.51;100.00;100836.25;2070729;28;40616;-75
2022/10/22 04:46:08;;;;;;;66.32;30.95;;;;;;;9.47;100.00;100839.00;2071468;28;30901;-75
2022/10/22 04:47:09;;;;;;;56.03;25.35;;;;;;;9.45;100.00;100838.16;2071300;28;34770;-75
2022/10/22 04:48:11;;;;;;;50.35;24.90;;;;;;;9.40;100.00;100848.91;2071238;28;41026;-75
2022/10/22 04:49:13;;;;;;;53.17;27.88;;;;;;;9.35;100.00;100846.34;2072330;28;33808;-75
2022/10/22 04:50:15;;;;;;;55.33;26.70;;;;;;;9.32;100.00;100845.53;2071928;28;32413;-75
2022/10/22 04:51:20;;;;;;;51.53;26.45;;;;;;;9.28;100.00;100847.38;2071495;28;38318;-75
2022/10/22 04:52:21;;;;;;;48.17;23.73;;;;;;;9.25;100.00;100857.25;2063418;28;20097;-74
2022/10/22 04:53:23;;;;;;;51.15;27.27;;;;;;;9.22;100.00;100844.81;2063084;28;34412;-75
2022/10/22 04:54:25;;;;;;;50.08;25.40;;;;;;;9.23;100.00;100851.06;2071946;28;30235;-75
2022/10/22 04:55:28;;;;;;;54.50;26.40;;;;;;;9.21;100.00;100852.88;2071353;28;31622;-76
2022/10/22 04:56:36;;;;;;;58.53;30.58;;;;;;;9.18;100.00;100849.34;2072772;28;20057;-75
2022/10/22 04:57:37;;;;;;;58.97;30.60;;;;;;;9.15;100.00;100854.75;2071603;28;35104;-75
2022/10/22 04:58:39;;;;;;;53.67;27.98;;;;;;;9.14;100.00;100857.44;2071772;28;36471;-75
2022/10/22 04:59:43;;;;;;;54.58;24.80;;;;;;;9.11;100.00;100858.38;2071175;28;37834;-75
2022/10/22 05:00:45;;;;;;;52.53;25.92;;;;;;;9.12;100.00;100860.16;2074665;28;38361;-75